createdAt,value
2017-08-25T00:02:26.128Z,64.73
2017-08-25T00:04:55.217Z,65.58
2017-08-25T00:07:26.593Z,66.50
2017-08-25T00:09:56.028Z,67.31
2017-08-25T00:12:28.212Z,68.28
2017-08-25T00:15:01.147Z,68.98
2017-08-25T00:17:32.165Z,69.86
2017-08-25T00:20:02.659Z,70.39
2017-08-25T00:22:33.765Z,70.49
2017-08-25T00:25:03.287Z,70.43
2017-08-25T00:27:33.412Z,69.81
2017-08-25T00:30:02.906Z,69.99
2017-08-25T00:32:34.928Z,69.74
2017-08-25T00:35:06.009Z,70.18
2017-08-25T00:37:35.498Z,70.02
2017-08-25T00:40:05.193Z,70.08
2017-08-25T00:42:37.024Z,70.18
2017-08-25T00:45:08.145Z,70.62
2017-08-25T00:47:37.589Z,70.75
2017-08-25T00:50:08.788Z,70.63
2017-08-25T00:52:38.238Z,70.57
2017-08-25T00:55:10.682Z,71.70
2017-08-25T00:57:43.777Z,73.09
2017-08-25T01:00:14.388Z,73.63
2017-08-25T01:02:45.209Z,72.76
2017-08-25T01:05:16.167Z,72.67
2017-08-25T01:07:45.824Z,71.95
2017-08-25T01:10:16.901Z,72.42
2017-08-25T01:12:46.361Z,72.44
2017-08-25T01:15:16.578Z,72.92
2017-08-25T01:17:46.017Z,73.91
2017-08-25T01:20:17.168Z,74.49
2017-08-25T01:22:47.012Z,74.94
2017-08-25T01:25:16.158Z,75.40
2017-08-25T01:27:46.016Z,75.50
2017-08-25T01:30:16.460Z,75.67
2017-08-25T01:32:46.417Z,75.92
2017-08-25T01:35:15.626Z,76.37
2017-08-25T01:37:46.530Z,76.74
2017-08-25T01:40:16.539Z,76.79
2017-08-25T01:42:48.473Z,77.51
2017-08-25T01:45:18.167Z,78.22
2017-08-25T01:47:47.251Z,79.30
2017-08-25T01:50:16.397Z,79.67
2017-08-25T01:52:45.501Z,80.15
2017-08-25T01:55:15.729Z,80.42
2017-08-25T01:57:45.186Z,80.98
2017-08-25T02:00:14.343Z,81.29
2017-08-25T02:02:44.068Z,81.48
2017-08-25T02:05:15.167Z,81.92
2017-08-25T02:07:44.460Z,82.25
2017-08-25T02:10:15.577Z,82.46
2017-08-25T02:12:45.008Z,83.07
2017-08-25T02:15:16.465Z,83.41
2017-08-25T02:17:45.893Z,83.79
2017-08-25T02:20:17.088Z,84.20
2017-08-25T02:22:46.624Z,84.76
2017-08-25T02:25:17.726Z,85.09
2017-08-25T02:27:47.617Z,85.28
2017-08-25T02:30:18.121Z,85.48
2017-08-25T02:32:47.568Z,85.60
2017-08-25T02:35:17.031Z,85.64
2017-08-25T02:37:49.092Z,85.84
2017-08-25T02:40:20.288Z,86.12
2017-08-25T02:42:49.792Z,86.44
2017-08-25T02:45:20.361Z,86.87
2017-08-25T02:47:50.369Z,87.33
2017-08-25T02:50:20.886Z,87.54
2017-08-25T02:52:52.096Z,87.76
2017-08-25T02:55:23.714Z,87.94
2017-08-25T02:57:54.110Z,88.28
2017-08-25T03:00:24.521Z,88.68
2017-08-25T03:02:54.412Z,89.16
2017-08-25T03:05:25.944Z,89.79
2017-08-25T03:07:59.511Z,90.06
2017-08-25T03:10:30.916Z,90.12
2017-08-25T03:13:02.056Z,90.31
2017-08-25T03:15:33.091Z,90.20
2017-08-25T03:18:04.620Z,90.17
2017-08-25T03:20:36.828Z,90.31
2017-08-25T03:23:09.863Z,90.46
2017-08-25T03:25:39.308Z,90.70
2017-08-25T03:28:09.555Z,90.73
2017-08-25T03:30:40.013Z,90.94
2017-08-25T03:33:11.178Z,91.16
2017-08-25T03:35:41.639Z,91.12
2017-08-25T03:38:12.599Z,91.22
2017-08-25T03:40:43.508Z,91.38
2017-08-25T03:43:13.500Z,91.73
2017-08-25T03:45:42.958Z,91.96
2017-08-25T03:48:12.388Z,92.03
2017-08-25T03:50:43.692Z,92.04
2017-08-25T03:53:13.128Z,92.21
2017-08-25T03:55:46.346Z,92.52
2017-08-25T03:58:17.145Z,92.61
2017-08-25T04:00:49.207Z,93.15
2017-08-25T04:03:20.227Z,92.97
2017-08-25T04:05:49.677Z,93.06
2017-08-25T04:08:19.120Z,93.16
2017-08-25T04:10:49.540Z,93.19
2017-08-25T04:13:19.516Z,93.34
2017-08-25T04:15:48.956Z,93.59
2017-08-25T04:18:20.141Z,93.87
2017-08-25T04:20:49.612Z,93.89
2017-08-25T04:23:20.534Z,93.99
2017-08-25T04:25:51.521Z,94.05
2017-08-25T04:28:21.547Z,93.93
2017-08-25T04:30:50.988Z,93.91
2017-08-25T04:33:22.273Z,94.04
2017-08-25T04:35:52.011Z,94.02
2017-08-25T04:38:22.855Z,94.12
2017-08-25T04:40:53.716Z,94.14
2017-08-25T04:43:24.530Z,94.08
2017-08-25T04:45:54.836Z,94.11
2017-08-25T04:48:25.195Z,94.00
2017-08-25T04:50:56.417Z,93.91
2017-08-25T04:53:25.845Z,93.68
2017-08-25T04:55:55.552Z,93.40
2017-08-25T04:58:25.546Z,93.27
2017-08-25T05:00:55.009Z,93.61
2017-08-25T05:03:26.067Z,93.54
2017-08-25T05:05:59.239Z,93.44
2017-08-25T05:08:30.369Z,93.28
2017-08-25T05:11:00.837Z,93.12
2017-08-25T05:13:30.817Z,92.92
2017-08-25T05:16:00.276Z,92.82
2017-08-25T05:18:32.645Z,92.70
2017-08-25T05:21:03.688Z,92.60
2017-08-25T05:23:35.575Z,92.51
2017-08-25T05:26:06.045Z,92.46
2017-08-25T05:28:37.990Z,92.37
2017-08-25T05:31:09.998Z,92.27
2017-08-25T05:33:41.012Z,92.13
2017-08-25T05:36:10.456Z,91.97
2017-08-25T05:38:41.603Z,91.69
2017-08-25T05:41:11.281Z,91.32
2017-08-25T05:43:42.337Z,90.91
2017-08-25T05:46:11.772Z,90.46
2017-08-25T05:48:42.968Z,89.63
2017-08-25T05:51:14.008Z,89.09
2017-08-25T05:53:43.461Z,88.50
2017-08-25T05:56:14.649Z,87.85
2017-08-25T05:58:44.096Z,87.36
2017-08-25T06:01:16.392Z,86.84
2017-08-25T06:03:45.839Z,86.01
2017-08-25T06:06:16.842Z,85.45
2017-08-25T06:08:46.828Z,85.04
2017-08-25T06:11:16.277Z,85.06
2017-08-25T06:13:47.556Z,84.16
2017-08-25T06:16:17.010Z,82.73
2017-08-25T06:18:48.111Z,81.35
2017-08-25T06:21:18.580Z,80.51
2017-08-25T06:23:48.609Z,79.86
2017-08-25T06:26:18.048Z,78.96
2017-08-25T06:28:48.029Z,78.03
2017-08-25T06:31:17.968Z,77.45
2017-08-25T06:33:48.408Z,76.25
2017-08-25T06:36:19.448Z,74.57
2017-08-25T06:38:52.613Z,73.50
2017-08-25T06:41:23.049Z,73.27
2017-08-25T06:43:53.947Z,73.19
2017-08-25T06:46:23.909Z,72.49
2017-08-25T06:48:53.369Z,72.83
2017-08-25T06:51:26.549Z,72.23
2017-08-25T06:53:57.456Z,70.60
2017-08-25T06:56:28.988Z,70.96
2017-08-25T06:59:00.033Z,70.88
2017-08-25T07:01:31.576Z,69.98
2017-08-25T07:04:03.596Z,70.01
2017-08-25T07:06:33.480Z,69.21
2017-08-25T07:09:03.792Z,68.38
2017-08-25T07:11:35.144Z,69.23
2017-08-25T07:14:04.581Z,70.13
2017-08-25T07:16:36.905Z,69.75
2017-08-25T07:19:08.599Z,67.43
2017-08-25T07:21:39.040Z,64.91
2017-08-25T07:24:08.492Z,64.07
2017-08-25T07:26:39.474Z,64.94
2017-08-25T07:29:08.920Z,63.79
2017-08-25T07:31:41.489Z,63.91
2017-08-25T07:34:13.150Z,63.51
2017-08-25T07:36:44.406Z,63.03
2017-08-25T07:39:13.901Z,62.08
2017-08-25T07:41:43.861Z,61.56
2017-08-25T07:44:14.247Z,61.58
2017-08-25T07:46:45.684Z,61.99
2017-08-25T07:49:15.793Z,61.38
2017-08-25T07:51:45.821Z,61.06
2017-08-25T07:54:16.660Z,60.73
2017-08-25T07:57:03.844Z,61.03
2017-08-25T07:59:33.301Z,60.95
2017-08-25T08:02:04.741Z,60.70
2017-08-25T08:04:35.131Z,60.26
2017-08-25T08:07:14.431Z,60.06
2017-08-25T08:09:45.426Z,59.87
2017-08-25T08:12:14.875Z,59.69
2017-08-25T08:14:46.436Z,59.61
2017-08-25T08:17:17.423Z,60.35
2017-08-25T08:19:47.454Z,61.56
2017-08-25T08:22:18.461Z,60.43
2017-08-25T08:24:49.957Z,58.49
2017-08-25T08:27:21.372Z,56.10
2017-08-25T08:29:50.834Z,57.20
2017-08-25T08:32:21.805Z,57.11
2017-08-25T08:34:51.256Z,57.50
2017-08-25T08:37:20.707Z,58.35
2017-08-25T08:39:50.621Z,57.56
2017-08-25T08:42:23.669Z,57.72
2017-08-25T08:44:55.238Z,55.38
2017-08-25T08:47:26.324Z,54.26
2017-08-25T08:50:00.566Z,55.38
2017-08-25T08:52:30.019Z,56.53
2017-08-25T08:55:01.154Z,53.60
2017-08-25T08:57:32.572Z,52.51
2017-08-25T09:00:02.106Z,53.31
2017-08-25T09:02:33.329Z,54.30
2017-08-25T09:05:04.331Z,52.91
2017-08-25T09:07:34.834Z,51.92
2017-08-25T09:10:06.901Z,48.97
2017-08-25T09:12:36.177Z,49.38
2017-08-25T09:15:05.676Z,49.22
2017-08-25T09:17:35.119Z,49.59
2017-08-25T09:20:06.520Z,49.38
2017-08-25T09:22:36.005Z,49.71
2017-08-25T09:25:05.504Z,49.48
2017-08-25T09:27:35.973Z,49.69
2017-08-25T09:30:06.109Z,48.63
2017-08-25T09:32:35.552Z,47.87
2017-08-25T09:35:08.200Z,46.55
2017-08-25T09:37:39.580Z,47.65
2017-08-25T09:40:10.475Z,46.92
2017-08-25T09:42:41.431Z,46.50
2017-08-25T09:45:11.853Z,45.94
2017-08-25T09:47:43.901Z,46.25
2017-08-25T09:50:15.467Z,47.92
2017-08-25T09:52:46.725Z,45.13
2017-08-25T09:55:16.053Z,44.54
2017-08-25T09:57:48.073Z,43.59
2017-08-25T10:00:18.104Z,42.74
2017-08-25T10:02:49.428Z,42.97
2017-08-25T10:05:19.447Z,46.43
2017-08-25T10:07:50.439Z,44.19
2017-08-25T10:10:20.949Z,42.07
2017-08-25T10:12:50.936Z,43.09
2017-08-25T10:15:20.440Z,43.79
2017-08-25T10:17:49.880Z,44.43
2017-08-25T10:20:21.414Z,43.79
2017-08-25T10:22:52.499Z,43.23
2017-08-25T10:25:21.989Z,43.76
2017-08-25T10:27:51.633Z,43.53
2017-08-25T10:30:24.684Z,43.29
2017-08-25T10:32:54.245Z,43.86
2017-08-25T10:38:34.644Z,42.54
2017-08-25T10:41:14.902Z,41.17
2017-08-25T10:46:47.745Z,41.59
2017-08-25T10:49:17.028Z,40.93
2017-08-25T10:51:46.470Z,40.57
2017-08-25T10:54:15.979Z,41.55
2017-08-25T10:56:45.438Z,41.94
2017-08-25T10:59:15.263Z,41.74
2017-08-25T11:01:44.945Z,41.97
2017-08-25T11:04:14.510Z,42.13
2017-08-25T11:06:43.815Z,41.19
2017-08-25T11:09:13.297Z,42.00
2017-08-25T11:11:42.766Z,39.76
2017-08-25T11:14:12.225Z,39.60
2017-08-25T11:16:41.709Z,42.06
2017-08-25T11:19:11.180Z,42.07
2017-08-25T11:21:40.661Z,43.07
2017-08-25T11:24:10.122Z,42.34
2017-08-25T11:26:39.575Z,41.81
2017-08-25T11:29:09.034Z,40.50
2017-08-25T11:31:38.502Z,41.14
2017-08-25T11:34:07.969Z,40.94
2017-08-25T11:36:37.418Z,39.81
2017-08-25T11:39:06.952Z,40.75
2017-08-25T11:41:36.409Z,40.32
2017-08-25T11:44:05.853Z,39.35
2017-08-25T11:46:35.305Z,39.42
2017-08-25T11:49:04.760Z,39.83
2017-08-25T11:51:34.204Z,38.85
2017-08-25T11:54:03.716Z,39.48
2017-08-25T11:56:33.160Z,39.91
2017-08-25T11:59:02.597Z,37.67
2017-08-25T12:01:32.036Z,38.58
2017-08-25T12:04:01.487Z,39.63
2017-08-25T12:06:30.932Z,39.28
2017-08-25T12:09:00.437Z,39.32
2017-08-25T12:11:29.912Z,38.83
2017-08-25T12:13:59.415Z,39.76
2017-08-25T12:16:28.667Z,37.50
2017-08-25T12:18:58.145Z,37.35
2017-08-25T12:21:27.603Z,36.87
2017-08-25T12:23:57.048Z,36.67
2017-08-25T12:26:26.486Z,34.71
2017-08-25T12:28:55.936Z,32.10
2017-08-25T12:31:25.386Z,31.10
2017-08-25T12:33:54.824Z,30.61
2017-08-25T12:36:24.273Z,30.83
2017-08-25T12:38:53.718Z,29.87
2017-08-25T12:41:23.174Z,28.50
2017-08-25T12:43:52.613Z,26.21
2017-08-25T12:46:22.093Z,26.56
2017-08-25T12:48:51.516Z,26.94
2017-08-25T12:51:21.005Z,25.20
2017-08-25T12:53:50.834Z,25.07
2017-08-25T12:56:20.270Z,24.58
2017-08-25T12:58:49.733Z,23.06
2017-08-25T13:01:19.186Z,23.15
2017-08-25T13:03:48.628Z,22.54
2017-08-25T13:06:18.072Z,22.81
2017-08-25T13:08:47.527Z,22.85
2017-08-25T13:11:16.974Z,22.66
2017-08-25T13:13:46.444Z,22.37
2017-08-25T13:16:15.898Z,22.67
2017-08-25T13:18:45.335Z,22.54
2017-08-25T13:21:14.809Z,22.14
2017-08-25T13:23:44.261Z,21.90
2017-08-25T13:26:13.718Z,21.37
2017-08-25T13:28:43.152Z,20.70
2017-08-25T13:31:12.609Z,21.38
2017-08-25T13:33:42.061Z,21.30
2017-08-25T13:36:11.506Z,21.40
2017-08-25T13:38:40.954Z,20.48
2017-08-25T13:41:10.422Z,19.80
2017-08-25T13:43:39.940Z,20.48
2017-08-25T13:46:09.365Z,19.42
2017-08-25T13:48:38.808Z,20.58
2017-08-25T13:51:08.290Z,19.91
2017-08-25T13:53:37.533Z,20.15
2017-08-25T13:56:06.992Z,20.82
2017-08-25T13:58:36.447Z,20.54
2017-08-25T14:01:05.905Z,20.91
2017-08-25T14:03:35.345Z,21.29
2017-08-25T14:06:04.805Z,21.61
2017-08-25T14:08:34.265Z,20.53
2017-08-25T14:11:03.717Z,21.14
2017-08-25T14:13:33.201Z,21.58
2017-08-25T14:16:02.644Z,21.45
2017-08-25T14:18:32.125Z,21.83
2017-08-25T14:21:01.565Z,22.51
2017-08-25T14:23:30.844Z,21.03
2017-08-25T14:26:00.301Z,21.35
2017-08-25T14:28:29.748Z,21.59
2017-08-25T14:30:59.201Z,21.67
2017-08-25T14:33:28.705Z,22.34
2017-08-25T14:35:58.146Z,21.79
2017-08-25T14:38:27.585Z,23.18
2017-08-25T14:40:57.029Z,21.72
2017-08-25T14:43:26.472Z,22.42
2017-08-25T14:45:55.916Z,21.67
2017-08-25T14:48:25.377Z,21.56
2017-08-25T14:50:54.814Z,20.97
2017-08-25T14:53:24.260Z,22.02
2017-08-25T14:55:53.777Z,22.24
2017-08-25T14:58:23.212Z,21.45
2017-08-25T15:00:52.672Z,20.88
2017-08-25T15:03:22.108Z,21.15
2017-08-25T15:05:51.573Z,20.66
2017-08-25T15:08:21.016Z,20.82
2017-08-25T15:10:50.457Z,20.81
2017-08-25T15:13:19.907Z,20.13
2017-08-25T15:15:49.362Z,21.65
2017-08-25T15:18:18.817Z,21.56
2017-08-25T15:20:48.250Z,22.35
2017-08-25T15:23:17.685Z,22.25
2017-08-25T15:25:47.135Z,21.11
2017-08-25T15:28:16.575Z,22.10
2017-08-25T15:30:46.064Z,21.85
2017-08-25T15:33:15.500Z,22.74
2017-08-25T15:35:44.954Z,22.68
2017-08-25T15:38:14.416Z,22.65
2017-08-25T15:40:43.854Z,22.83
2017-08-25T15:43:13.302Z,22.36
2017-08-25T15:45:42.780Z,23.95
2017-08-25T15:48:12.225Z,23.90
2017-08-25T15:50:41.669Z,23.80
2017-08-25T15:53:11.158Z,24.75
2017-08-25T15:55:40.608Z,25.46
2017-08-25T15:58:10.090Z,23.88
2017-08-25T16:00:39.527Z,24.13
2017-08-25T16:03:08.808Z,25.45
2017-08-25T16:05:38.250Z,26.17
2017-08-25T16:08:07.524Z,27.23
2017-08-25T16:10:37.789Z,26.18
2017-08-25T16:13:07.211Z,26.74
2017-08-25T16:15:36.650Z,26.87
2017-08-25T16:18:06.104Z,26.59
2017-08-25T16:20:35.548Z,27.40
2017-08-25T16:23:05.010Z,27.23
2017-08-25T16:25:34.508Z,27.58
2017-08-25T16:28:03.949Z,27.72
2017-08-25T16:30:33.389Z,28.00
2017-08-25T16:33:02.856Z,28.85
2017-08-25T16:35:32.292Z,28.66
2017-08-25T16:38:01.721Z,29.53
2017-08-25T16:40:31.165Z,29.20
2017-08-25T16:43:00.607Z,30.37
2017-08-25T16:45:30.111Z,30.32
2017-08-25T16:47:59.584Z,33.28
2017-08-25T16:50:29.046Z,34.35
2017-08-25T16:52:58.496Z,34.97
2017-08-25T16:55:27.954Z,35.55
2017-08-25T16:57:57.420Z,36.41
2017-08-25T17:00:27.828Z,38.48
2017-08-25T17:02:57.289Z,39.06
2017-08-25T17:05:26.538Z,39.65
2017-08-25T17:07:55.981Z,40.68
2017-08-25T17:10:25.441Z,42.01
2017-08-25T17:12:54.892Z,42.96
2017-08-25T17:15:24.383Z,43.96
2017-08-25T17:17:53.642Z,43.97
2017-08-25T17:20:23.122Z,45.05
2017-08-25T17:22:52.560Z,46.12
2017-08-25T17:25:22.040Z,47.17
2017-08-25T17:27:51.501Z,47.54
2017-08-25T17:30:21.010Z,48.52
2017-08-25T17:32:50.452Z,50.94
2017-08-25T17:35:19.949Z,52.62
2017-08-25T17:37:49.404Z,54.91
2017-08-25T17:40:18.872Z,56.65
2017-08-25T17:42:48.329Z,57.67
2017-08-25T17:45:17.830Z,59.60
2017-08-25T17:47:47.081Z,59.39
2017-08-25T17:50:16.548Z,60.35
2017-08-25T17:52:46.595Z,61.34
2017-08-25T17:55:16.121Z,62.74
2017-08-25T17:57:45.553Z,63.65
2017-08-25T18:00:15.046Z,64.93
2017-08-25T18:02:44.341Z,66.16
2017-08-25T18:05:13.897Z,66.99
2017-08-25T18:07:43.331Z,67.59
2017-08-25T18:10:12.800Z,68.31
2017-08-25T18:12:42.284Z,69.04
2017-08-25T18:15:11.744Z,69.80
2017-08-25T18:17:41.209Z,70.71
2017-08-25T18:20:10.698Z,71.13
2017-08-25T18:22:40.137Z,71.55
2017-08-25T18:25:09.658Z,71.73
2017-08-25T18:27:39.112Z,72.66
2017-08-25T18:30:08.574Z,73.54
2017-08-25T18:32:38.033Z,74.13
2017-08-25T18:35:07.516Z,74.55
2017-08-25T18:37:36.954Z,75.29
2017-08-25T18:40:06.479Z,76.28
2017-08-25T18:42:35.900Z,76.69
2017-08-25T18:45:05.380Z,77.37
2017-08-25T18:47:34.935Z,77.50
2017-08-25T18:50:04.418Z,78.15
2017-08-25T18:52:33.689Z,77.75
2017-08-25T18:55:03.240Z,77.60
2017-08-25T18:57:32.687Z,78.55
2017-08-25T19:00:02.174Z,78.87
2017-08-25T19:02:31.626Z,79.22
2017-08-25T19:05:01.087Z,79.56
2017-08-25T19:07:30.560Z,80.25
2017-08-25T19:10:00.001Z,80.75
2017-08-25T19:12:29.466Z,80.61
2017-08-25T19:14:58.898Z,80.83
2017-08-25T19:17:28.362Z,81.14
2017-08-25T19:19:57.805Z,81.40
2017-08-25T19:22:27.261Z,81.74
2017-08-25T19:24:56.725Z,81.57
2017-08-25T19:27:26.289Z,81.56
2017-08-25T19:29:55.705Z,81.78
2017-08-25T19:32:25.148Z,82.08
2017-08-25T19:34:54.585Z,82.30
2017-08-25T19:37:24.039Z,82.66
2017-08-25T19:39:53.500Z,82.64
2017-08-25T19:42:22.952Z,82.81
2017-08-25T19:44:52.428Z,83.07
2017-08-25T19:47:21.872Z,83.33
2017-08-25T19:49:51.337Z,83.78
2017-08-25T19:52:20.586Z,84.34
2017-08-25T19:54:50.035Z,84.42
2017-08-25T19:57:19.308Z,84.57
2017-08-25T19:59:48.822Z,85.09
2017-08-25T20:02:18.278Z,85.39
2017-08-25T20:04:47.720Z,85.17
2017-08-25T20:07:16.998Z,85.19
2017-08-25T20:09:46.518Z,85.16
2017-08-25T20:12:15.973Z,85.22
2017-08-25T20:14:45.416Z,85.26
2017-08-25T20:17:14.887Z,85.74
2017-08-25T20:19:44.361Z,86.03
2017-08-25T20:22:14.676Z,86.27
2017-08-25T20:24:44.109Z,86.51
2017-08-25T20:27:13.565Z,86.93
2017-08-25T20:29:43.025Z,86.59
2017-08-25T20:32:12.489Z,86.62
2017-08-25T20:34:41.956Z,86.87
2017-08-25T20:37:11.429Z,86.98
2017-08-25T20:39:40.883Z,87.12
2017-08-25T20:42:10.334Z,87.01
2017-08-25T20:44:39.841Z,87.23
2017-08-25T20:47:09.280Z,87.61
2017-08-25T20:49:38.763Z,87.88
2017-08-25T20:52:08.260Z,88.11
2017-08-25T20:54:37.554Z,87.99
2017-08-25T20:57:06.988Z,87.86
2017-08-25T20:59:36.441Z,88.16
2017-08-25T21:02:05.904Z,88.50
2017-08-25T21:04:35.170Z,88.93
2017-08-25T21:07:04.634Z,88.86
2017-08-25T21:09:34.104Z,88.55
2017-08-25T21:12:03.570Z,88.43
2017-08-25T21:14:33.013Z,88.36
2017-08-25T21:17:02.460Z,88.04
2017-08-25T21:19:31.909Z,87.98
2017-08-25T21:22:01.407Z,88.16
2017-08-25T21:24:30.847Z,88.10
2017-08-25T21:27:00.293Z,88.26
2017-08-25T21:29:29.744Z,88.41
2017-08-25T21:31:59.197Z,88.79
2017-08-25T21:34:28.665Z,88.97
2017-08-25T21:36:58.128Z,89.33
2017-08-25T21:39:27.577Z,89.51
2017-08-25T21:41:57.020Z,89.67
2017-08-25T21:44:26.465Z,89.77
2017-08-25T21:46:56.616Z,89.85
2017-08-25T21:49:26.117Z,90.11
2017-08-25T21:51:55.563Z,90.06
2017-08-25T21:54:24.849Z,90.13
2017-08-25T21:56:54.299Z,90.35
2017-08-25T21:59:23.753Z,90.48
2017-08-25T22:01:53.209Z,90.70
2017-08-25T22:04:22.684Z,90.70
2017-08-25T22:06:52.131Z,90.62
2017-08-25T22:09:21.573Z,90.78
2017-08-25T22:11:51.026Z,90.92
2017-08-25T22:14:20.504Z,91.03
2017-08-25T22:16:49.971Z,91.13
2017-08-25T22:19:19.407Z,91.06
2017-08-25T22:21:48.895Z,90.81
2017-08-25T22:24:18.353Z,90.78
2017-08-25T22:26:47.807Z,90.79
2017-08-25T22:29:17.259Z,90.80
2017-08-25T22:31:46.704Z,91.03
2017-08-25T22:34:16.180Z,91.23
2017-08-25T22:36:45.613Z,91.37
2017-08-25T22:39:15.093Z,91.23
2017-08-25T22:41:44.549Z,91.25
2017-08-25T22:44:14.006Z,91.04
2017-08-25T22:46:43.260Z,91.00
2017-08-25T22:49:12.756Z,90.90
2017-08-25T22:51:42.205Z,90.94
2017-08-25T22:54:11.663Z,90.78
2017-08-25T22:56:40.964Z,90.63
2017-08-25T22:59:10.403Z,90.72
2017-08-25T23:01:39.840Z,90.73
2017-08-25T23:04:09.298Z,90.76
2017-08-25T23:06:38.744Z,90.89
2017-08-25T23:09:08.270Z,90.87
2017-08-25T23:11:37.728Z,90.98
2017-08-25T23:14:07.177Z,90.88
2017-08-25T23:16:36.716Z,90.85
2017-08-25T23:19:06.233Z,90.88
2017-08-25T23:21:35.487Z,91.04
2017-08-25T23:24:04.950Z,91.05
2017-08-25T23:26:34.395Z,90.87
2017-08-25T23:29:03.838Z,90.69
2017-08-25T23:31:33.467Z,90.43
2017-08-25T23:34:02.906Z,90.54
2017-08-25T23:36:32.341Z,90.56
2017-08-25T23:39:01.795Z,90.55
2017-08-25T23:41:31.231Z,90.54
2017-08-25T23:44:00.693Z,90.76
2017-08-25T23:46:30.154Z,90.69
2017-08-25T23:48:59.624Z,90.53
2017-08-25T23:51:29.064Z,90.57
2017-08-25T23:53:58.521Z,90.57
2017-08-25T23:56:27.968Z,90.63
2017-08-25T23:58:57.501Z,90.70
